sensor_id;sensor_type;location;lat;lon;timestamp;temperature;humidity
6672;DHT22;3372;48.690;12.362;2023-11-18T00:01:59;7.00;99.10
6672;DHT22;3372;48.690;12.362;2023-11-18T00:04:24;7.10;99.30
6672;DHT22;3372;48.690;12.362;2023-11-18T00:06:50;7.00;98.90
6672;DHT22;3372;48.690;12.362;2023-11-18T00:09:17;7.10;99.30
6672;DHT22;3372;48.690;12.362;2023-11-18T00:11:43;7.10;99.70
6672;DHT22;3372;48.690;12.362;2023-11-18T00:14:09;7.10;99.80
6672;DHT22;3372;48.690;12.362;2023-11-18T00:16:37;7.10;99.60
6672;DHT22;3372;48.690;12.362;2023-11-18T00:19:02;7.10;99.60
6672;DHT22;3372;48.690;12.362;2023-11-18T00:21:32;7.10;99.90
6672;DHT22;3372;48.690;12.362;2023-11-18T00:23:57;7.10;99.90
6672;DHT22;3372;48.690;12.362;2023-11-18T00:26:23;7.10;99.90
6672;DHT22;3372;48.690;12.362;2023-11-18T00:28:49;7.10;99.90
6672;DHT22;3372;48.690;12.362;2023-11-18T00:31:15;7.10;99.90
6672;DHT22;3372;48.690;12.362;2023-11-18T00:33:40;7.10;99.90
6672;DHT22;3372;48.690;12.362;2023-11-18T00:36:06;7.10;99.90
6672;DHT22;3372;48.690;12.362;2023-11-18T00:38:32;7.20;99.90
6672;DHT22;3372;48.690;12.362;2023-11-18T00:40:58;7.10;99.90
6672;DHT22;3372;48.690;12.362;2023-11-18T00:43:23;7.10;99.90
6672;DHT22;3372;48.690;12.362;2023-11-18T00:45:49;7.10;99.90
6672;DHT22;3372;48.690;12.362;2023-11-18T00:48:15;7.10;99.90
6672;DHT22;3372;48.690;12.362;2023-11-18T00:50:41;7.00;99.90
6672;DHT22;3372;48.690;12.362;2023-11-18T00:53:06;6.90;99.90
6672;DHT22;3372;48.690;12.362;2023-11-18T00:55:32;7.00;99.90
6672;DHT22;3372;48.690;12.362;2023-11-18T00:57:57;7.10;99.90
6672;DHT22;3372;48.690;12.362;2023-11-18T01:00:23;7.10;99.90
6672;DHT22;3372;48.690;12.362;2023-11-18T01:02:52;7.10;99.90
6672;DHT22;3372;48.690;12.362;2023-11-18T01:05:20;7.10;99.90
6672;DHT22;3372;48.690;12.362;2023-11-18T01:07:45;6.90;99.90
6672;DHT22;3372;48.690;12.362;2023-11-18T01:10:12;7.00;99.90
6672;DHT22;3372;48.690;12.362;2023-11-18T01:12:39;7.00;99.90
6672;DHT22;3372;48.690;12.362;2023-11-18T01:15:05;7.00;99.90
6672;DHT22;3372;48.690;12.362;2023-11-18T01:17:32;7.00;99.90
6672;DHT22;3372;48.690;12.362;2023-11-18T01:19:58;7.10;99.90
6672;DHT22;3372;48.690;12.362;2023-11-18T01:22:25;7.00;99.90
6672;DHT22;3372;48.690;12.362;2023-11-18T01:24:50;6.90;99.90
6672;DHT22;3372;48.690;12.362;2023-11-18T01:27:19;6.90;99.90
6672;DHT22;3372;48.690;12.362;2023-11-18T01:29:46;6.90;99.90
6672;DHT22;3372;48.690;12.362;2023-11-18T01:32:14;6.90;99.90
6672;DHT22;3372;48.690;12.362;2023-11-18T01:34:40;6.90;99.90
6672;DHT22;3372;48.690;12.362;2023-11-18T01:37:06;6.90;99.90
6672;DHT22;3372;48.690;12.362;2023-11-18T01:39:36;6.90;99.90
6672;DHT22;3372;48.690;12.362;2023-11-18T01:42:02;6.90;99.90
6672;DHT22;3372;48.690;12.362;2023-11-18T01:44:28;6.90;99.90
6672;DHT22;3372;48.690;12.362;2023-11-18T01:46:58;6.90;99.90
6672;DHT22;3372;48.690;12.362;2023-11-18T01:49:24;6.80;99.90
6672;DHT22;3372;48.690;12.362;2023-11-18T01:51:52;6.80;99.90
6672;DHT22;3372;48.690;12.362;2023-11-18T01:54:19;6.80;99.90
6672;DHT22;3372;48.690;12.362;2023-11-18T01:56:48;6.90;99.90
6672;DHT22;3372;48.690;12.362;2023-11-18T01:59:16;6.90;99.90
6672;DHT22;3372;48.690;12.362;2023-11-18T02:01:47;6.90;99.90
6672;DHT22;3372;48.690;12.362;2023-11-18T02:04:14;6.90;99.90
6672;DHT22;3372;48.690;12.362;2023-11-18T02:06:40;6.90;99.90
6672;DHT22;3372;48.690;12.362;2023-11-18T02:09:06;6.90;99.90
6672;DHT22;3372;48.690;12.362;2023-11-18T02:11:37;6.90;99.90
6672;DHT22;3372;48.690;12.362;2023-11-18T02:14:07;6.80;99.90
6672;DHT22;3372;48.690;12.362;2023-11-18T02:16:38;6.90;99.90
6672;DHT22;3372;48.690;12.362;2023-11-18T02:19:17;6.90;99.90
6672;DHT22;3372;48.690;12.362;2023-11-18T02:21:45;6.80;99.90
6672;DHT22;3372;48.690;12.362;2023-11-18T02:24:11;6.90;99.90
6672;DHT22;3372;48.690;12.362;2023-11-18T02:26:44;6.90;99.90
6672;DHT22;3372;48.690;12.362;2023-11-18T02:29:11;6.70;99.90
6672;DHT22;3372;48.690;12.362;2023-11-18T02:31:37;6.70;99.90
6672;DHT22;3372;48.690;12.362;2023-11-18T02:34:11;6.60;99.90
6672;DHT22;3372;48.690;12.362;2023-11-18T02:36:47;6.70;99.90
6672;DHT22;3372;48.690;12.362;2023-11-18T02:39:21;6.70;99.90
6672;DHT22;3372;48.690;12.362;2023-11-18T02:41:49;6.70;99.90
6672;DHT22;3372;48.690;12.362;2023-11-18T02:44:17;6.80;99.90
6672;DHT22;3372;48.690;12.362;2023-11-18T02:46:47;6.70;99.90
6672;DHT22;3372;48.690;12.362;2023-11-18T02:49:14;6.70;99.90
6672;DHT22;3372;48.690;12.362;2023-11-18T02:51:39;6.70;99.90
6672;DHT22;3372;48.690;12.362;2023-11-18T02:54:06;6.60;99.90
6672;DHT22;3372;48.690;12.362;2023-11-18T02:56:32;6.60;99.90
6672;DHT22;3372;48.690;12.362;2023-11-18T02:58:58;6.70;99.90
6672;DHT22;3372;48.690;12.362;2023-11-18T03:01:24;6.50;99.90
6672;DHT22;3372;48.690;12.362;2023-11-18T03:03:51;6.50;99.90
6672;DHT22;3372;48.690;12.362;2023-11-18T03:06:16;6.60;99.90
6672;DHT22;3372;48.690;12.362;2023-11-18T03:08:42;6.50;99.90
6672;DHT22;3372;48.690;12.362;2023-11-18T03:11:07;6.60;99.90
6672;DHT22;3372;48.690;12.362;2023-11-18T03:13:35;6.60;99.90
6672;DHT22;3372;48.690;12.362;2023-11-18T03:16:00;6.60;99.90
6672;DHT22;3372;48.690;12.362;2023-11-18T03:18:26;6.70;99.90
6672;DHT22;3372;48.690;12.362;2023-11-18T03:20:51;6.70;99.90
6672;DHT22;3372;48.690;12.362;2023-11-18T03:23:17;6.70;99.90
6672;DHT22;3372;48.690;12.362;2023-11-18T03:25:44;6.70;99.90
6672;DHT22;3372;48.690;12.362;2023-11-18T03:28:10;6.70;99.90
6672;DHT22;3372;48.690;12.362;2023-11-18T03:30:35;6.70;99.90
6672;DHT22;3372;48.690;12.362;2023-11-18T03:33:03;6.60;99.90
6672;DHT22;3372;48.690;12.362;2023-11-18T03:35:29;6.70;99.90
6672;DHT22;3372;48.690;12.362;2023-11-18T03:37:55;6.70;99.90
6672;DHT22;3372;48.690;12.362;2023-11-18T03:40:21;6.80;99.90
6672;DHT22;3372;48.690;12.362;2023-11-18T03:42:46;6.70;99.90
6672;DHT22;3372;48.690;12.362;2023-11-18T03:45:12;6.80;99.90
6672;DHT22;3372;48.690;12.362;2023-11-18T03:47:42;6.80;99.90
6672;DHT22;3372;48.690;12.362;2023-11-18T03:50:08;6.90;99.90
6672;DHT22;3372;48.690;12.362;2023-11-18T03:52:36;6.80;99.90
6672;DHT22;3372;48.690;12.362;2023-11-18T03:55:03;6.90;99.90
6672;DHT22;3372;48.690;12.362;2023-11-18T03:57:29;6.90;99.90
6672;DHT22;3372;48.690;12.362;2023-11-18T03:59:55;6.90;99.90
6672;DHT22;3372;48.690;12.362;2023-11-18T04:02:21;6.90;99.90
6672;DHT22;3372;48.690;12.362;2023-11-18T04:04:47;6.80;99.90
6672;DHT22;3372;48.690;12.362;2023-11-18T04:07:13;6.80;99.90
6672;DHT22;3372;48.690;12.362;2023-11-18T04:09:39;6.80;99.90
6672;DHT22;3372;48.690;12.362;2023-11-18T04:12:07;6.80;99.90
6672;DHT22;3372;48.690;12.362;2023-11-18T04:14:33;6.90;99.90
6672;DHT22;3372;48.690;12.362;2023-11-18T04:16:58;6.90;99.90
6672;DHT22;3372;48.690;12.362;2023-11-18T04:19:24;6.90;99.90
6672;DHT22;3372;48.690;12.362;2023-11-18T04:21:50;6.90;99.90
6672;DHT22;3372;48.690;12.362;2023-11-18T04:24:16;6.90;99.90
6672;DHT22;3372;48.690;12.362;2023-11-18T04:26:42;6.90;99.90
6672;DHT22;3372;48.690;12.362;2023-11-18T04:29:07;6.80;99.90
6672;DHT22;3372;48.690;12.362;2023-11-18T04:31:33;6.90;99.90
6672;DHT22;3372;48.690;12.362;2023-11-18T04:33:59;6.80;99.90
6672;DHT22;3372;48.690;12.362;2023-11-18T04:36:25;6.80;99.90
6672;DHT22;3372;48.690;12.362;2023-11-18T04:38:52;6.80;99.90
6672;DHT22;3372;48.690;12.362;2023-11-18T04:41:18;6.80;99.90
6672;DHT22;3372;48.690;12.362;2023-11-18T04:43:43;6.80;99.90
6672;DHT22;3372;48.690;12.362;2023-11-18T04:46:09;6.80;99.90
6672;DHT22;3372;48.690;12.362;2023-11-18T04:48:36;6.80;99.90
6672;DHT22;3372;48.690;12.362;2023-11-18T04:51:02;6.80;99.90
6672;DHT22;3372;48.690;12.362;2023-11-18T04:53:27;6.80;99.90
6672;DHT22;3372;48.690;12.362;2023-11-18T04:55:53;6.80;99.90
6672;DHT22;3372;48.690;12.362;2023-11-18T04:58:19;6.80;99.90
6672;DHT22;3372;48.690;12.362;2023-11-18T05:00:44;6.80;99.90
6672;DHT22;3372;48.690;12.362;2023-11-18T05:03:10;6.80;99.90
6672;DHT22;3372;48.690;12.362;2023-11-18T05:05:37;6.70;99.90
6672;DHT22;3372;48.690;12.362;2023-11-18T05:08:06;6.80;99.90
6672;DHT22;3372;48.690;12.362;2023-11-18T05:10:33;6.90;99.90
6672;DHT22;3372;48.690;12.362;2023-11-18T05:12:59;6.80;99.90
6672;DHT22;3372;48.690;12.362;2023-11-18T05:15:25;6.90;99.90
6672;DHT22;3372;48.690;12.362;2023-11-18T05:17:51;6.90;99.90
6672;DHT22;3372;48.690;12.362;2023-11-18T05:20:17;6.90;99.90
6672;DHT22;3372;48.690;12.362;2023-11-18T05:22:43;7.00;99.90
6672;DHT22;3372;48.690;12.362;2023-11-18T05:25:09;6.90;99.90
6672;DHT22;3372;48.690;12.362;2023-11-18T05:27:35;6.90;99.90
6672;DHT22;3372;48.690;12.362;2023-11-18T05:30:01;6.90;99.90
6672;DHT22;3372;48.690;12.362;2023-11-18T05:32:27;6.80;99.90
6672;DHT22;3372;48.690;12.362;2023-11-18T05:34:53;6.80;99.90
6672;DHT22;3372;48.690;12.362;2023-11-18T05:37:24;6.80;99.90
6672;DHT22;3372;48.690;12.362;2023-11-18T05:39:50;6.70;99.90
6672;DHT22;3372;48.690;12.362;2023-11-18T05:42:27;6.90;99.90
6672;DHT22;3372;48.690;12.362;2023-11-18T05:44:53;6.90;99.90
6672;DHT22;3372;48.690;12.362;2023-11-18T05:47:27;6.90;99.90
6672;DHT22;3372;48.690;12.362;2023-11-18T05:49:53;6.90;99.90
6672;DHT22;3372;48.690;12.362;2023-11-18T05:52:20;6.90;99.90
6672;DHT22;3372;48.690;12.362;2023-11-18T05:54:46;6.90;99.90
6672;DHT22;3372;48.690;12.362;2023-11-18T05:57:17;6.90;99.90
6672;DHT22;3372;48.690;12.362;2023-11-18T05:59:43;6.90;99.90
6672;DHT22;3372;48.690;12.362;2023-11-18T06:02:08;6.70;99.90
6672;DHT22;3372;48.690;12.362;2023-11-18T06:04:38;6.70;99.90
6672;DHT22;3372;48.690;12.362;2023-11-18T06:07:04;6.80;99.90
6672;DHT22;3372;48.690;12.362;2023-11-18T06:09:30;6.70;99.90
6672;DHT22;3372;48.690;12.362;2023-11-18T06:11:55;6.70;99.90
6672;DHT22;3372;48.690;12.362;2023-11-18T06:14:21;6.70;99.90
6672;DHT22;3372;48.690;12.362;2023-11-18T06:16:47;6.70;99.90
6672;DHT22;3372;48.690;12.362;2023-11-18T06:19:15;6.80;99.90
6672;DHT22;3372;48.690;12.362;2023-11-18T06:21:41;6.80;99.90
6672;DHT22;3372;48.690;12.362;2023-11-18T06:24:07;6.80;99.90
6672;DHT22;3372;48.690;12.362;2023-11-18T06:26:32;6.90;99.90
6672;DHT22;3372;48.690;12.362;2023-11-18T06:29:01;6.90;99.90
6672;DHT22;3372;48.690;12.362;2023-11-18T06:31:27;6.90;99.90
6672;DHT22;3372;48.690;12.362;2023-11-18T06:33:55;6.80;99.90
6672;DHT22;3372;48.690;12.362;2023-11-18T06:36:21;6.80;99.90
6672;DHT22;3372;48.690;12.362;2023-11-18T06:38:51;6.90;99.90
6672;DHT22;3372;48.690;12.362;2023-11-18T06:41:19;6.90;99.90
6672;DHT22;3372;48.690;12.362;2023-11-18T06:43:45;6.80;99.90
6672;DHT22;3372;48.690;12.362;2023-11-18T06:48:49;6.90;99.90
6672;DHT22;3372;48.690;12.362;2023-11-18T06:51:15;6.80;99.90
6672;DHT22;3372;48.690;12.362;2023-11-18T06:53:42;6.80;99.90
6672;DHT22;3372;48.690;12.362;2023-11-18T06:56:08;7.00;99.90
6672;DHT22;3372;48.690;12.362;2023-11-18T06:58:37;7.00;99.90
6672;DHT22;3372;48.690;12.362;2023-11-18T07:01:03;7.00;99.90
6672;DHT22;3372;48.690;12.362;2023-11-18T07:03:31;7.00;99.90
6672;DHT22;3372;48.690;12.362;2023-11-18T07:05:57;7.00;99.90
6672;DHT22;3372;48.690;12.362;2023-11-18T07:08:22;7.00;99.90
6672;DHT22;3372;48.690;12.362;2023-11-18T07:10:49;7.10;99.90
6672;DHT22;3372;48.690;12.362;2023-11-18T07:13:15;7.10;99.90
6672;DHT22;3372;48.690;12.362;2023-11-18T07:15:41;7.20;99.90
6672;DHT22;3372;48.690;12.362;2023-11-18T07:18:08;7.20;99.90
6672;DHT22;3372;48.690;12.362;2023-11-18T07:20:34;7.20;99.90
6672;DHT22;3372;48.690;12.362;2023-11-18T07:23:00;7.20;99.90
6672;DHT22;3372;48.690;12.362;2023-11-18T07:25:26;7.10;99.90
6672;DHT22;3372;48.690;12.362;2023-11-18T07:27:51;7.20;99.90
6672;DHT22;3372;48.690;12.362;2023-11-18T07:30:17;7.20;99.90
6672;DHT22;3372;48.690;12.362;2023-11-18T07:32:44;7.20;99.90
6672;DHT22;3372;48.690;12.362;2023-11-18T07:35:09;7.20;99.90
6672;DHT22;3372;48.690;12.362;2023-11-18T07:37:38;7.20;99.90
6672;DHT22;3372;48.690;12.362;2023-11-18T07:40:04;7.20;99.90
6672;DHT22;3372;48.690;12.362;2023-11-18T07:42:33;7.20;99.90
6672;DHT22;3372;48.690;12.362;2023-11-18T07:45:00;7.20;99.90
6672;DHT22;3372;48.690;12.362;2023-11-18T07:47:29;7.20;99.90
6672;DHT22;3372;48.690;12.362;2023-11-18T07:49:57;7.30;99.90
6672;DHT22;3372;48.690;12.362;2023-11-18T07:52:25;7.40;99.90
6672;DHT22;3372;48.690;12.362;2023-11-18T07:54:53;7.40;99.90
6672;DHT22;3372;48.690;12.362;2023-11-18T07:57:18;7.50;99.90
6672;DHT22;3372;48.690;12.362;2023-11-18T07:59:44;7.50;99.90
6672;DHT22;3372;48.690;12.362;2023-11-18T08:02:09;7.50;99.90
6672;DHT22;3372;48.690;12.362;2023-11-18T08:04:36;7.50;99.90
6672;DHT22;3372;48.690;12.362;2023-11-18T08:07:02;7.60;99.90
6672;DHT22;3372;48.690;12.362;2023-11-18T08:09:30;7.30;99.90
6672;DHT22;3372;48.690;12.362;2023-11-18T08:11:57;7.40;99.90
6672;DHT22;3372;48.690;12.362;2023-11-18T08:14:25;7.40;99.90
6672;DHT22;3372;48.690;12.362;2023-11-18T08:16:52;7.50;99.90
6672;DHT22;3372;48.690;12.362;2023-11-18T08:19:18;7.50;99.90
6672;DHT22;3372;48.690;12.362;2023-11-18T08:21:45;7.60;99.90
6672;DHT22;3372;48.690;12.362;2023-11-18T08:24:12;7.60;99.90
6672;DHT22;3372;48.690;12.362;2023-11-18T08:26:39;7.60;99.90
6672;DHT22;3372;48.690;12.362;2023-11-18T08:29:05;7.70;99.90
6672;DHT22;3372;48.690;12.362;2023-11-18T08:31:33;7.70;99.90
6672;DHT22;3372;48.690;12.362;2023-11-18T08:33:59;7.80;99.90
6672;DHT22;3372;48.690;12.362;2023-11-18T08:36:25;7.80;99.90
6672;DHT22;3372;48.690;12.362;2023-11-18T08:38:53;7.80;99.90
6672;DHT22;3372;48.690;12.362;2023-11-18T08:41:20;7.80;99.90
6672;DHT22;3372;48.690;12.362;2023-11-18T08:43:45;7.80;99.90
6672;DHT22;3372;48.690;12.362;2023-11-18T08:46:15;7.80;99.90
6672;DHT22;3372;48.690;12.362;2023-11-18T08:48:41;7.80;99.90
6672;DHT22;3372;48.690;12.362;2023-11-18T08:51:07;7.70;99.90
6672;DHT22;3372;48.690;12.362;2023-11-18T08:53:34;7.70;99.90
6672;DHT22;3372;48.690;12.362;2023-11-18T08:56:09;7.80;99.90
6672;DHT22;3372;48.690;12.362;2023-11-18T08:58:44;7.90;99.90
6672;DHT22;3372;48.690;12.362;2023-11-18T09:01:14;7.80;99.90
6672;DHT22;3372;48.690;12.362;2023-11-18T09:03:41;7.80;99.90
6672;DHT22;3372;48.690;12.362;2023-11-18T09:06:09;7.90;99.90
6672;DHT22;3372;48.690;12.362;2023-11-18T09:08:51;7.90;99.90
6672;DHT22;3372;48.690;12.362;2023-11-18T09:11:22;7.90;99.90
6672;DHT22;3372;48.690;12.362;2023-11-18T09:13:49;7.80;99.90
6672;DHT22;3372;48.690;12.362;2023-11-18T09:16:19;7.90;99.90
6672;DHT22;3372;48.690;12.362;2023-11-18T09:18:48;7.70;99.90
6672;DHT22;3372;48.690;12.362;2023-11-18T09:21:14;7.80;99.90
6672;DHT22;3372;48.690;12.362;2023-11-18T09:23:41;7.80;99.90
6672;DHT22;3372;48.690;12.362;2023-11-18T09:26:08;7.70;99.90
6672;DHT22;3372;48.690;12.362;2023-11-18T09:28:36;7.90;99.90
6672;DHT22;3372;48.690;12.362;2023-11-18T09:31:03;7.90;99.90
6672;DHT22;3372;48.690;12.362;2023-11-18T09:33:30;7.80;99.90
6672;DHT22;3372;48.690;12.362;2023-11-18T09:36:07;7.90;99.90
6672;DHT22;3372;48.690;12.362;2023-11-18T09:38:37;8.00;99.90
6672;DHT22;3372;48.690;12.362;2023-11-18T09:41:05;8.10;99.90
6672;DHT22;3372;48.690;12.362;2023-11-18T09:43:56;8.00;99.90
6672;DHT22;3372;48.690;12.362;2023-11-18T09:46:28;8.10;99.90
6672;DHT22;3372;48.690;12.362;2023-11-18T09:49:24;8.20;99.90
6672;DHT22;3372;48.690;12.362;2023-11-18T09:51:59;8.30;99.90
6672;DHT22;3372;48.690;12.362;2023-11-18T09:54:30;8.40;99.90
6672;DHT22;3372;48.690;12.362;2023-11-18T09:57:16;8.30;99.90
6672;DHT22;3372;48.690;12.362;2023-11-18T10:02:50;8.30;99.90
6672;DHT22;3372;48.690;12.362;2023-11-18T10:05:16;8.40;99.90
6672;DHT22;3372;48.690;12.362;2023-11-18T10:07:47;8.50;99.90
6672;DHT22;3372;48.690;12.362;2023-11-18T10:10:13;8.50;99.90
6672;DHT22;3372;48.690;12.362;2023-11-18T10:12:45;8.60;99.90
6672;DHT22;3372;48.690;12.362;2023-11-18T10:15:14;8.40;99.90
6672;DHT22;3372;48.690;12.362;2023-11-18T10:17:44;8.40;99.90
6672;DHT22;3372;48.690;12.362;2023-11-18T10:20:51;8.50;99.90
6672;DHT22;3372;48.690;12.362;2023-11-18T10:23:18;8.60;99.90
6672;DHT22;3372;48.690;12.362;2023-11-18T10:25:51;8.70;99.90
6672;DHT22;3372;48.690;12.362;2023-11-18T10:28:29;8.80;99.90
6672;DHT22;3372;48.690;12.362;2023-11-18T10:30:57;8.90;99.90
6672;DHT22;3372;48.690;12.362;2023-11-18T10:33:25;8.90;99.90
6672;DHT22;3372;48.690;12.362;2023-11-18T10:35:56;8.90;99.90
6672;DHT22;3372;48.690;12.362;2023-11-18T10:38:22;8.90;99.90
6672;DHT22;3372;48.690;12.362;2023-11-18T10:40:55;9.00;99.90
6672;DHT22;3372;48.690;12.362;2023-11-18T10:43:21;9.00;99.90
6672;DHT22;3372;48.690;12.362;2023-11-18T10:46:09;8.90;99.90
6672;DHT22;3372;48.690;12.362;2023-11-18T10:48:46;8.80;99.90
6672;DHT22;3372;48.690;12.362;2023-11-18T10:51:19;8.80;99.90
6672;DHT22;3372;48.690;12.362;2023-11-18T10:53:49;8.70;99.90
6672;DHT22;3372;48.690;12.362;2023-11-18T10:56:28;8.70;99.90
6672;DHT22;3372;48.690;12.362;2023-11-18T10:59:04;8.80;99.90
6672;DHT22;3372;48.690;12.362;2023-11-18T11:01:37;8.70;99.90
6672;DHT22;3372;48.690;12.362;2023-11-18T11:04:15;8.80;99.90
6672;DHT22;3372;48.690;12.362;2023-11-18T11:06:50;8.90;99.90
6672;DHT22;3372;48.690;12.362;2023-11-18T11:09:23;9.00;99.90
6672;DHT22;3372;48.690;12.362;2023-11-18T11:12:08;8.90;99.90
6672;DHT22;3372;48.690;12.362;2023-11-18T11:14:52;8.90;99.70
6672;DHT22;3372;48.690;12.362;2023-11-18T11:17:20;8.90;99.90
6672;DHT22;3372;48.690;12.362;2023-11-18T11:20:07;8.90;99.90
6672;DHT22;3372;48.690;12.362;2023-11-18T11:28:34;9.00;99.90
6672;DHT22;3372;48.690;12.362;2023-11-18T11:31:21;9.10;99.50
6672;DHT22;3372;48.690;12.362;2023-11-18T11:33:58;9.10;99.80
6672;DHT22;3372;48.690;12.362;2023-11-18T11:36:39;9.20;99.90
6672;DHT22;3372;48.690;12.362;2023-11-18T11:39:08;9.20;99.90
6672;DHT22;3372;48.690;12.362;2023-11-18T11:41:36;9.20;99.70
6672;DHT22;3372;48.690;12.362;2023-11-18T11:44:03;9.20;99.50
6672;DHT22;3372;48.690;12.362;2023-11-18T11:46:32;9.20;98.70
6672;DHT22;3372;48.690;12.362;2023-11-18T11:49:03;9.20;99.30
6672;DHT22;3372;48.690;12.362;2023-11-18T11:51:53;9.30;99.20
6672;DHT22;3372;48.690;12.362;2023-11-18T11:54:26;9.40;99.20
6672;DHT22;3372;48.690;12.362;2023-11-18T11:56:56;9.50;99.30
6672;DHT22;3372;48.690;12.362;2023-11-18T12:02:26;9.40;99.50
6672;DHT22;3372;48.690;12.362;2023-11-18T12:04:56;9.40;99.80
6672;DHT22;3372;48.690;12.362;2023-11-18T12:07:25;9.40;99.90
6672;DHT22;3372;48.690;12.362;2023-11-18T12:09:59;9.40;99.30
6672;DHT22;3372;48.690;12.362;2023-11-18T12:12:26;9.30;99.00
6672;DHT22;3372;48.690;12.362;2023-11-18T12:14:57;9.30;99.20
6672;DHT22;3372;48.690;12.362;2023-11-18T12:20:42;9.30;98.70
6672;DHT22;3372;48.690;12.362;2023-11-18T12:23:10;9.40;99.20
6672;DHT22;3372;48.690;12.362;2023-11-18T12:25:47;9.40;99.80
6672;DHT22;3372;48.690;12.362;2023-11-18T12:28:21;9.50;99.90
6672;DHT22;3372;48.690;12.362;2023-11-18T12:30:56;9.40;97.70
6672;DHT22;3372;48.690;12.362;2023-11-18T12:33:25;9.40;98.00
6672;DHT22;3372;48.690;12.362;2023-11-18T12:42:06;9.40;98.10
6672;DHT22;3372;48.690;12.362;2023-11-18T12:44:38;9.40;97.90
6672;DHT22;3372;48.690;12.362;2023-11-18T12:47:08;9.40;98.60
6672;DHT22;3372;48.690;12.362;2023-11-18T12:49:47;9.40;98.60
6672;DHT22;3372;48.690;12.362;2023-11-18T12:52:20;9.50;98.30
6672;DHT22;3372;48.690;12.362;2023-11-18T12:54:47;9.50;97.80
6672;DHT22;3372;48.690;12.362;2023-11-18T12:57:18;9.40;98.30
6672;DHT22;3372;48.690;12.362;2023-11-18T12:59:45;9.40;97.90
6672;DHT22;3372;48.690;12.362;2023-11-18T13:02:12;9.50;97.20
6672;DHT22;3372;48.690;12.362;2023-11-18T13:04:45;9.50;97.80
6672;DHT22;3372;48.690;12.362;2023-11-18T13:07:17;9.40;97.30
6672;DHT22;3372;48.690;12.362;2023-11-18T13:09:44;9.50;97.40
6672;DHT22;3372;48.690;12.362;2023-11-18T13:12:12;9.40;97.90
6672;DHT22;3372;48.690;12.362;2023-11-18T13:14:41;9.40;98.30
6672;DHT22;3372;48.690;12.362;2023-11-18T13:17:14;9.40;97.90
6672;DHT22;3372;48.690;12.362;2023-11-18T13:19:41;9.40;96.30
6672;DHT22;3372;48.690;12.362;2023-11-18T13:22:09;9.40;97.70
6672;DHT22;3372;48.690;12.362;2023-11-18T13:24:35;9.40;97.70
6672;DHT22;3372;48.690;12.362;2023-11-18T13:27:02;9.40;97.80
6672;DHT22;3372;48.690;12.362;2023-11-18T13:29:30;9.40;97.40
6672;DHT22;3372;48.690;12.362;2023-11-18T13:31:56;9.50;98.30
6672;DHT22;3372;48.690;12.362;2023-11-18T13:34:23;9.50;98.60
6672;DHT22;3372;48.690;12.362;2023-11-18T13:36:49;9.40;98.30
6672;DHT22;3372;48.690;12.362;2023-11-18T13:39:19;9.40;97.60
6672;DHT22;3372;48.690;12.362;2023-11-18T13:41:51;9.40;97.40
6672;DHT22;3372;48.690;12.362;2023-11-18T13:44:33;9.50;97.40
6672;DHT22;3372;48.690;12.362;2023-11-18T13:47:06;9.40;96.10
6672;DHT22;3372;48.690;12.362;2023-11-18T13:49:33;9.50;96.30
6672;DHT22;3372;48.690;12.362;2023-11-18T13:52:01;9.50;96.30
6672;DHT22;3372;48.690;12.362;2023-11-18T13:54:28;9.40;96.80
6672;DHT22;3372;48.690;12.362;2023-11-18T13:56:55;9.40;96.70
6672;DHT22;3372;48.690;12.362;2023-11-18T13:59:27;9.40;97.10
6672;DHT22;3372;48.690;12.362;2023-11-18T14:01:53;9.30;96.80
6672;DHT22;3372;48.690;12.362;2023-11-18T14:04:22;9.30;97.70
6672;DHT22;3372;48.690;12.362;2023-11-18T14:06:52;9.30;98.60
6672;DHT22;3372;48.690;12.362;2023-11-18T14:09:20;9.30;98.40
6672;DHT22;3372;48.690;12.362;2023-11-18T14:11:55;9.40;98.50
6672;DHT22;3372;48.690;12.362;2023-11-18T14:14:22;9.40;97.70
6672;DHT22;3372;48.690;12.362;2023-11-18T14:16:48;9.30;97.80
6672;DHT22;3372;48.690;12.362;2023-11-18T14:19:14;9.40;97.90
6672;DHT22;3372;48.690;12.362;2023-11-18T14:21:40;9.40;97.70
6672;DHT22;3372;48.690;12.362;2023-11-18T14:24:08;9.20;98.00
6672;DHT22;3372;48.690;12.362;2023-11-18T14:26:34;9.20;97.80
6672;DHT22;3372;48.690;12.362;2023-11-18T14:28:59;9.20;98.20
6672;DHT22;3372;48.690;12.362;2023-11-18T14:31:25;9.10;97.60
6672;DHT22;3372;48.690;12.362;2023-11-18T14:33:51;9.10;98.70
6672;DHT22;3372;48.690;12.362;2023-11-18T14:36:18;9.00;99.10
6672;DHT22;3372;48.690;12.362;2023-11-18T14:38:44;9.10;99.30
6672;DHT22;3372;48.690;12.362;2023-11-18T14:41:10;9.00;99.70
6672;DHT22;3372;48.690;12.362;2023-11-18T14:43:36;9.00;99.90
6672;DHT22;3372;48.690;12.362;2023-11-18T14:46:02;9.00;99.90
6672;DHT22;3372;48.690;12.362;2023-11-18T14:48:29;9.00;99.90
6672;DHT22;3372;48.690;12.362;2023-11-18T14:50:55;9.00;99.90
6672;DHT22;3372;48.690;12.362;2023-11-18T14:53:22;9.00;99.90
6672;DHT22;3372;48.690;12.362;2023-11-18T14:55:48;8.90;99.70
6672;DHT22;3372;48.690;12.362;2023-11-18T14:58:14;8.90;99.90
6672;DHT22;3372;48.690;12.362;2023-11-18T15:00:40;8.80;99.90
6672;DHT22;3372;48.690;12.362;2023-11-18T15:03:06;8.80;99.90
6672;DHT22;3372;48.690;12.362;2023-11-18T15:05:32;8.80;99.70
6672;DHT22;3372;48.690;12.362;2023-11-18T15:07:59;8.80;99.80
6672;DHT22;3372;48.690;12.362;2023-11-18T15:10:27;8.70;99.10
6672;DHT22;3372;48.690;12.362;2023-11-18T15:12:58;8.60;99.20
6672;DHT22;3372;48.690;12.362;2023-11-18T15:15:31;8.50;99.00
6672;DHT22;3372;48.690;12.362;2023-11-18T15:18:01;8.40;98.90
6672;DHT22;3372;48.690;12.362;2023-11-18T15:20:30;8.30;98.70
6672;DHT22;3372;48.690;12.362;2023-11-18T15:22:56;8.30;99.40
6672;DHT22;3372;48.690;12.362;2023-11-18T15:25:22;8.20;99.30
6672;DHT22;3372;48.690;12.362;2023-11-18T15:27:48;8.10;99.40
6672;DHT22;3372;48.690;12.362;2023-11-18T15:30:16;8.10;99.40
6672;DHT22;3372;48.690;12.362;2023-11-18T15:32:43;8.10;99.50
6672;DHT22;3372;48.690;12.362;2023-11-18T15:35:10;8.00;99.30
6672;DHT22;3372;48.690;12.362;2023-11-18T15:37:37;8.00;99.60
6672;DHT22;3372;48.690;12.362;2023-11-18T15:40:05;8.00;99.30
6672;DHT22;3372;48.690;12.362;2023-11-18T15:42:40;7.90;99.30
6672;DHT22;3372;48.690;12.362;2023-11-18T15:45:16;7.80;99.20
6672;DHT22;3372;48.690;12.362;2023-11-18T15:47:43;7.80;99.60
6672;DHT22;3372;48.690;12.362;2023-11-18T15:50:10;7.80;99.90
6672;DHT22;3372;48.690;12.362;2023-11-18T15:52:45;7.70;99.30
6672;DHT22;3372;48.690;12.362;2023-11-18T15:55:12;7.70;99.30
6672;DHT22;3372;48.690;12.362;2023-11-18T15:57:43;7.60;99.10
6672;DHT22;3372;48.690;12.362;2023-11-18T16:00:10;7.50;98.90
6672;DHT22;3372;48.690;12.362;2023-11-18T16:02:43;7.40;99.30
6672;DHT22;3372;48.690;12.362;2023-11-18T16:05:11;7.30;99.60
6672;DHT22;3372;48.690;12.362;2023-11-18T16:07:39;7.40;99.60
6672;DHT22;3372;48.690;12.362;2023-11-18T16:10:06;7.40;99.60
6672;DHT22;3372;48.690;12.362;2023-11-18T16:12:31;7.30;99.90
6672;DHT22;3372;48.690;12.362;2023-11-18T16:14:57;7.30;99.90
6672;DHT22;3372;48.690;12.362;2023-11-18T16:17:23;7.40;99.90
6672;DHT22;3372;48.690;12.362;2023-11-18T16:19:49;7.40;99.90
6672;DHT22;3372;48.690;12.362;2023-11-18T16:22:14;7.30;99.90
6672;DHT22;3372;48.690;12.362;2023-11-18T16:24:40;7.30;99.90
6672;DHT22;3372;48.690;12.362;2023-11-18T16:27:06;7.30;99.90
6672;DHT22;3372;48.690;12.362;2023-11-18T16:29:31;7.40;99.90
6672;DHT22;3372;48.690;12.362;2023-11-18T16:31:58;7.30;99.90
6672;DHT22;3372;48.690;12.362;2023-11-18T16:34:23;7.30;99.90